Time;durP1;ratioP1;P1;durP2;ratioP2;P2;SDS_P1;SDS_P2;PMS_P1;PMS_P2;Temp;Humidity;BMP_temperature;BMP_pressure;BME280_temperature;BME280_humidity;BME280_pressure;Samples;Min_cycle;Max_cycle;Signal;HPM_P1;HPM_P2
2022/04/09 00:01:38;;;;;;;3.53;2.20;;;;;;;15.50;49.83;93920.97;5071533;28;20628;-90
2022/04/09 00:04:07;;;;;;;3.40;2.10;;;;;;;15.50;49.72;93894.78;5071254;28;20257;-91
2022/04/09 00:06:34;;;;;;;6.27;2.20;;;;;;;15.51;49.45;93895.56;5075343;28;20205;-90
2022/04/09 00:09:00;;;;;;;5.07;2.03;;;;;;;15.52;49.25;93886.69;5075164;28;20205;-91
2022/04/09 00:11:27;;;;;;;3.23;2.13;;;;;;;15.65;48.91;93901.81;5074723;28;20216;-90
2022/04/09 00:13:55;;;;;;;3.53;1.90;;;;;;;15.54;49.27;93879.31;5074821;28;20663;-88
2022/04/09 00:16:23;;;;;;;3.37;1.93;;;;;;;15.53;49.01;93893.47;5073787;28;20237;-89
2022/04/09 00:18:50;;;;;;;7.20;2.27;;;;;;;15.60;49.44;93892.16;5074108;28;20695;-94
2022/04/09 00:21:18;;;;;;;4.80;2.13;;;;;;;15.64;49.15;93902.88;5077746;28;20204;-96
2022/04/09 00:23:45;;;;;;;7.07;2.27;;;;;;;15.46;48.91;93870.16;5077884;28;20722;-94
2022/04/09 00:26:14;;;;;;;4.13;2.10;;;;;;;15.25;49.38;93835.41;5078622;28;20197;-96
2022/04/09 00:28:41;;;;;;;7.00;2.00;;;;;;;15.59;49.06;93897.63;5083145;28;20213;-91
2022/04/09 00:31:08;;;;;;;2.90;1.90;;;;;;;15.53;49.41;93886.41;5089310;28;20252;-90
2022/04/09 00:33:49;;;;;;;5.93;2.40;;;;;;;15.50;49.48;93888.78;5087592;28;20228;-91
2022/04/09 00:36:18;;;;;;;5.07;2.20;;;;;;;15.38;49.80;93870.72;5072771;28;20202;-90
2022/04/09 00:38:45;;;;;;;4.40;2.00;;;;;;;15.42;49.69;93871.75;5073948;28;20205;-91
2022/04/09 00:44:33;;;;;;;6.00;2.23;;;;;;;15.48;49.39;93885.63;5074826;28;20251;-92
2022/04/09 00:47:20;;;;;;;4.10;2.17;;;;;;;15.45;49.54;93880.91;5076821;28;20194;-92
2022/04/09 00:49:56;;;;;;;3.10;2.10;;;;;;;15.43;49.50;93869.91;5072642;28;20208;-87
2022/04/09 00:52:27;;;;;;;4.40;2.10;;;;;;;15.43;49.85;93878.56;5080477;28;20219;-85
2022/04/09 00:54:55;;;;;;;4.13;2.13;;;;;;;15.46;49.57;93872.78;5090464;28;20185;-88
2022/04/09 00:57:25;;;;;;;4.80;2.03;;;;;;;15.44;49.74;93869.63;5091559;28;20247;-89
2022/04/09 00:59:55;;;;;;;2.83;1.90;;;;;;;15.48;49.69;93872.53;5080386;28;20194;-89
2022/04/09 01:02:22;;;;;;;5.00;2.00;;;;;;;15.45;49.75;93870.41;5073739;28;20640;-88
2022/04/09 01:04:50;;;;;;;3.30;2.00;;;;;;;15.50;49.88;93875.69;5074659;28;20242;-92
2022/04/09 01:07:18;;;;;;;3.43;2.03;;;;;;;15.50;49.78;93873.84;5076073;28;20225;-94
2022/04/09 01:09:46;;;;;;;6.90;2.10;;;;;;;15.45;49.80;93859.94;5078570;28;20278;-94
2022/04/09 01:12:16;;;;;;;2.87;2.00;;;;;;;15.45;49.83;93865.97;5086585;28;20206;-95
2022/04/09 01:14:43;;;;;;;2.77;2.00;;;;;;;15.29;50.31;93846.13;5076188;28;20225;-96
2022/04/09 01:17:10;;;;;;;4.07;2.10;;;;;;;15.20;50.63;93832.81;5073605;28;20292;-90
2022/04/09 01:19:37;;;;;;;5.13;2.23;;;;;;;15.22;50.77;93851.63;5072710;28;20212;-92
2022/04/09 01:22:05;;;;;;;5.10;2.53;;;;;;;15.14;51.40;93843.56;5074355;28;20679;-94
2022/04/09 01:24:33;;;;;;;5.07;2.40;;;;;;;15.08;51.21;93861.09;5080897;28;20225;-94
2022/04/09 01:27:00;;;;;;;3.83;2.20;;;;;;;14.77;52.41;93800.16;5077031;28;20209;-94
2022/04/09 01:29:53;;;;;;;3.90;2.50;;;;;;;15.01;52.53;93855.34;5073225;28;20201;-92
2022/04/09 01:32:20;;;;;;;6.77;2.40;;;;;;;15.06;52.99;93852.75;5071535;28;20209;-83
2022/04/09 01:34:47;;;;;;;4.07;2.60;;;;;;;14.98;53.22;93855.88;5068607;28;20247;-83
2022/04/09 01:37:17;;;;;;;5.30;2.77;;;;;;;14.94;52.92;93860.06;5071892;28;20671;-83
2022/04/09 01:39:48;;;;;;;8.80;3.37;;;;;;;14.79;53.78;93852.25;5071812;28;20251;-83
2022/04/09 01:42:15;;;;;;;7.30;3.10;;;;;;;14.60;54.26;93851.97;5071786;28;20273;-90
2022/04/09 01:44:42;;;;;;;9.17;2.60;;;;;;;14.56;54.46;93850.94;5071561;28;20217;-89
2022/04/09 01:47:09;;;;;;;5.43;2.73;;;;;;;14.57;54.71;93862.19;5072108;28;20205;-89
2022/04/09 01:49:35;;;;;;;3.67;2.67;;;;;;;14.46;54.51;93850.16;5066463;28;20213;-89
2022/04/09 01:52:02;;;;;;;7.60;2.70;;;;;;;14.41;54.84;93856.16;5071956;28;20220;-89
2022/04/09 01:54:31;;;;;;;3.57;2.60;;;;;;;14.23;55.64;93857.41;5072072;28;20221;-90
2022/04/09 01:56:58;;;;;;;5.73;2.80;;;;;;;14.09;56.31;93876.47;5072187;28;20216;-92
2022/04/09 01:59:25;;;;;;;3.67;2.80;;;;;;;14.02;56.10;93860.28;5075072;28;20671;-93
2022/04/09 02:02:05;;;;;;;3.33;2.53;;;;;;;13.99;56.88;93868.63;5075122;28;20592;-92
2022/04/09 02:04:32;;;;;;;4.63;2.70;;;;;;;13.87;57.28;93870.69;5074059;28;20221;-92
2022/04/09 02:06:59;;;;;;;4.93;2.50;;;;;;;13.99;56.97;93866.00;5072246;28;20224;-83
2022/04/09 02:09:35;;;;;;;4.47;2.70;;;;;;;14.03;56.77;93865.22;5070869;28;20584;-83
2022/04/09 02:12:02;;;;;;;7.67;2.50;;;;;;;13.95;56.48;93857.91;5071227;28;20197;-83
2022/04/09 02:14:28;;;;;;;6.73;2.47;;;;;;;13.93;57.04;93875.66;5071165;28;20320;-83
2022/04/09 02:16:55;;;;;;;7.10;2.30;;;;;;;13.82;57.28;93871.47;5071656;28;20198;-84
2022/04/09 02:19:22;;;;;;;4.10;2.40;;;;;;;13.69;58.06;93863.31;5070685;28;20205;-83
2022/04/09 02:21:49;;;;;;;3.93;2.43;;;;;;;13.57;58.04;93850.47;5070694;28;20220;-85
2022/04/09 02:24:16;;;;;;;5.40;2.40;;;;;;;13.60;58.31;93852.56;5070165;28;20668;-85
2022/04/09 02:26:44;;;;;;;5.93;2.70;;;;;;;13.60;58.89;93858.56;5072477;28;20201;-86
2022/04/09 02:29:11;;;;;;;6.10;2.30;;;;;;;13.58;58.07;93852.84;5070987;28;20220;-86
2022/04/09 02:31:42;;;;;;;6.17;2.07;;;;;;;13.53;58.74;93852.78;5071307;28;21118;-86
2022/04/09 02:34:09;;;;;;;4.97;2.60;;;;;;;13.27;59.08;93825.03;5071043;28;20193;-87
2022/04/09 02:36:42;;;;;;;7.90;2.60;;;;;;;13.44;59.07;93858.78;5071255;28;20233;-84
2022/04/09 02:39:10;;;;;;;6.43;2.20;;;;;;;13.48;58.77;93844.16;5069913;28;20217;-85
2022/04/09 02:41:37;;;;;;;7.33;2.60;;;;;;;13.61;58.21;93849.72;5069564;28;20201;-85
2022/04/09 02:44:06;;;;;;;7.40;2.70;;;;;;;13.60;58.25;93842.91;5069454;28;20232;-88
2022/04/09 02:46:34;;;;;;;9.07;2.80;;;;;;;13.69;58.29;93839.81;5070958;28;20193;-87
2022/04/09 02:49:01;;;;;;;10.67;2.60;;;;;;;13.49;58.63;93830.06;5070828;28;20582;-86
2022/04/09 02:51:28;;;;;;;6.73;2.40;;;;;;;13.42;58.97;93827.69;5070959;28;20205;-87
2022/04/09 02:57:47;;;;;;;7.37;2.50;;;;;;;13.52;58.48;93827.75;5072507;28;20205;-88
2022/04/09 03:00:16;;;;;;;6.60;2.50;;;;;;;13.53;58.80;93824.09;5089379;28;20177;-88
2022/04/09 03:02:44;;;;;;;3.83;2.50;;;;;;;13.53;58.61;93828.53;5078203;28;20189;-88
2022/04/09 03:05:13;;;;;;;4.03;2.43;;;;;;;13.58;58.72;93841.59;5071653;28;20233;-89
2022/04/09 03:07:40;;;;;;;4.57;2.70;;;;;;;13.44;58.75;93817.00;5070893;28;20202;-88
2022/04/09 03:10:07;;;;;;;6.30;2.53;;;;;;;13.50;58.46;93837.66;5071747;28;20201;-88
2022/04/09 03:12:44;;;;;;;6.80;2.80;;;;;;;13.54;58.21;93836.09;5071677;28;20204;-88
2022/04/09 03:15:11;;;;;;;4.73;2.37;;;;;;;13.56;58.63;93833.25;5072047;28;20260;-87
2022/04/09 03:17:49;;;;;;;6.57;3.17;;;;;;;13.50;58.47;93818.59;5071310;28;20885;-84
2022/04/09 03:20:16;;;;;;;7.47;2.60;;;;;;;13.50;58.50;93811.56;5067107;28;20205;-85
2022/04/09 03:22:47;;;;;;;7.83;2.73;;;;;;;13.63;58.45;93831.16;5070742;28;20203;-86
2022/04/09 03:25:14;;;;;;;6.67;3.00;;;;;;;13.54;58.87;93824.88;5059760;28;20221;-87
2022/04/09 03:27:48;;;;;;;6.20;2.77;;;;;;;13.43;59.56;93811.00;5071692;28;20212;-88
2022/04/09 03:30:15;;;;;;;6.20;2.60;;;;;;;13.53;58.94;93824.09;5071819;28;20271;-87
2022/04/09 03:32:49;;;;;;;6.83;3.13;;;;;;;13.37;59.75;93801.59;5071294;28;20205;-88
2022/04/09 03:35:16;;;;;;;5.37;2.60;;;;;;;13.18;60.46;93771.78;5069546;28;20196;-89
2022/04/09 03:37:45;;;;;;;7.43;3.10;;;;;;;13.32;60.85;93804.19;5067911;28;20201;-88
2022/04/09 03:40:13;;;;;;;8.43;2.90;;;;;;;13.14;61.06;93796.00;5070614;28;20208;-87
2022/04/09 03:42:40;;;;;;;6.70;3.20;;;;;;;13.16;61.77;93820.03;5080192;28;20201;-89
2022/04/09 03:45:08;;;;;;;7.30;3.10;;;;;;;13.04;61.90;93812.38;5072150;28;20226;-85
2022/04/09 03:47:35;;;;;;;6.80;2.83;;;;;;;13.01;62.67;93829.31;5071710;28;20208;-86
2022/04/09 03:50:05;;;;;;;6.03;3.03;;;;;;;12.93;62.37;93802.91;5071901;28;20201;-86
2022/04/09 03:52:31;;;;;;;12.50;3.70;;;;;;;13.07;63.04;93824.91;5071904;28;20683;-85
2022/04/09 03:54:58;;;;;;;6.57;3.17;;;;;;;12.97;63.48;93835.28;5070805;28;20672;-85
2022/04/09 03:57:25;;;;;;;7.53;3.50;;;;;;;12.93;63.44;93835.00;5068802;28;20259;-84
2022/04/09 03:59:55;;;;;;;9.27;3.23;;;;;;;12.77;63.75;93809.09;5067182;28;20207;-84
2022/04/09 04:02:23;;;;;;;10.60;3.90;;;;;;;12.77;63.90;93840.38;5070153;28;20207;-84
2022/04/09 04:04:50;;;;;;;7.27;3.70;;;;;;;12.79;64.52;93820.03;5069545;28;20648;-85
2022/04/09 04:07:23;;;;;;;9.13;3.60;;;;;;;12.44;66.13;93817.97;5071993;28;20652;-85
2022/04/09 04:09:50;;;;;;;8.17;3.60;;;;;;;12.50;66.19;93815.16;5075175;28;20189;-84
2022/04/09 04:12:17;;;;;;;10.10;3.80;;;;;;;12.53;65.57;93824.31;5068053;28;20198;-85
2022/04/09 04:14:44;;;;;;;10.60;3.50;;;;;;;12.59;65.53;93828.53;5066551;28;20253;-85
2022/04/09 04:17:12;;;;;;;13.87;4.13;;;;;;;12.56;65.34;93833.44;5064532;28;20198;-84
2022/04/09 04:19:39;;;;;;;12.87;4.07;;;;;;;12.47;65.85;93840.94;5070409;28;20223;-85
2022/04/09 04:22:07;;;;;;;12.10;4.23;;;;;;;12.22;67.37;93823.28;5070080;28;20304;-85
2022/04/09 04:24:37;;;;;;;10.80;4.47;;;;;;;12.31;67.21;93821.81;5070029;28;20275;-85
2022/04/09 04:27:05;;;;;;;10.10;4.50;;;;;;;12.34;67.27;93846.59;5070016;28;20198;-85
2022/04/09 04:29:33;;;;;;;6.10;3.57;;;;;;;12.30;66.92;93835.84;5069494;28;20259;-85
2022/04/09 04:32:00;;;;;;;10.23;4.30;;;;;;;12.10;67.25;93796.63;5069287;28;20251;-84
2022/04/09 04:34:27;;;;;;;12.17;4.23;;;;;;;12.25;67.14;93808.97;5069405;28;20698;-84
2022/04/09 04:36:54;;;;;;;9.43;3.80;;;;;;;12.43;67.06;93830.25;5069027;28;20202;-86
2022/04/09 04:39:21;;;;;;;8.20;4.10;;;;;;;12.43;66.87;93819.03;5068903;28;20201;-86
2022/04/09 04:41:49;;;;;;;8.43;4.50;;;;;;;12.60;66.70;93831.91;5068691;28;20699;-84
2022/04/09 04:44:16;;;;;;;9.70;4.20;;;;;;;12.52;66.00;93818.31;5068327;28;20224;-86
2022/04/09 04:46:43;;;;;;;12.40;4.50;;;;;;;12.45;66.23;93820.34;5069185;28;20212;-86
2022/04/09 04:49:10;;;;;;;11.00;4.30;;;;;;;12.47;66.20;93820.09;5068671;28;20198;-85
2022/04/09 04:51:37;;;;;;;16.50;4.90;;;;;;;12.27;66.19;93793.88;5069412;28;21038;-84
2022/04/09 04:54:19;;;;;;;9.67;4.30;;;;;;;12.44;66.54;93795.31;5072685;28;20204;-84
2022/04/09 04:56:46;;;;;;;11.73;4.33;;;;;;;12.46;66.62;93795.88;5069581;28;20212;-83
2022/04/09 04:59:15;;;;;;;11.43;4.07;;;;;;;12.66;65.93;93804.84;5072433;28;20266;-83
2022/04/09 05:01:42;;;;;;;11.77;4.40;;;;;;;12.78;65.82;93813.28;5072774;28;20303;-85
2022/04/09 05:04:10;;;;;;;9.83;4.10;;;;;;;12.83;65.96;93806.28;5071291;28;20280;-88
2022/04/09 05:06:45;;;;;;;15.53;5.10;;;;;;;12.89;65.64;93802.66;5071340;28;20205;-86
2022/04/09 05:09:13;;;;;;;10.07;4.60;;;;;;;12.94;64.63;93807.09;5072262;28;20282;-84
2022/04/09 05:11:40;;;;;;;10.47;4.57;;;;;;;13.00;64.58;93806.09;5072204;28;20274;-86
2022/04/09 05:14:07;;;;;;;7.13;4.00;;;;;;;12.91;64.32;93797.97;5068849;28;20212;-73
2022/04/09 05:16:36;;;;;;;10.37;4.27;;;;;;;12.97;65.02;93804.00;5067608;28;20197;-73
2022/04/09 05:19:03;;;;;;;7.80;4.33;;;;;;;13.05;65.14;93791.25;5068737;28;20268;-73
2022/04/09 05:21:30;;;;;;;13.10;4.60;;;;;;;13.16;65.01;93807.75;5069000;28;20262;-73
2022/04/09 05:23:57;;;;;;;11.67;4.43;;;;;;;13.20;63.98;93801.00;5067995;28;20201;-72
2022/04/09 05:26:24;;;;;;;12.17;4.37;;;;;;;13.27;63.68;93803.38;5067555;28;20202;-74
2022/04/09 05:28:53;;;;;;;13.53;4.60;;;;;;;13.35;63.22;93798.47;5068251;28;20193;-74
2022/04/09 05:31:20;;;;;;;10.77;5.57;;;;;;;13.39;63.08;93796.13;5067645;28;20229;-73
2022/04/09 05:33:48;;;;;;;19.90;7.00;;;;;;;13.58;62.76;93802.44;5068964;28;20267;-74
2022/04/09 05:36:15;;;;;;;13.00;7.27;;;;;;;13.69;62.62;93803.25;5068772;28;20280;-74
2022/04/09 05:38:42;;;;;;;14.50;5.53;;;;;;;13.81;61.72;93790.75;5068630;28;20194;-74
2022/04/09 05:41:09;;;;;;;16.50;5.33;;;;;;;13.87;60.83;93808.78;5068629;28;20284;-74
2022/04/09 05:43:36;;;;;;;15.17;5.40;;;;;;;14.02;60.69;93802.78;5068779;28;20246;-73
2022/04/09 05:46:02;;;;;;;11.77;4.97;;;;;;;14.15;59.88;93799.66;5068668;28;20695;-73
2022/04/09 05:48:29;;;;;;;13.67;4.17;;;;;;;14.26;58.84;93806.47;5068472;28;20204;-75
2022/04/09 05:50:58;;;;;;;8.07;3.33;;;;;;;14.25;58.78;93806.72;5068848;28;20259;-70
2022/04/09 05:53:24;;;;;;;7.80;3.70;;;;;;;14.26;58.60;93801.22;5068354;28;20189;-74
2022/04/09 05:55:51;;;;;;;8.47;3.67;;;;;;;14.36;58.00;93803.09;5067150;28;20209;-72
2022/04/09 05:58:18;;;;;;;13.47;4.33;;;;;;;14.46;57.07;93809.09;5066053;28;20739;-73
2022/04/09 06:00:45;;;;;;;5.63;3.50;;;;;;;14.47;57.54;93807.28;5068086;28;20596;-74
2022/04/09 06:03:12;;;;;;;9.40;3.47;;;;;;;14.52;57.82;93809.88;5067806;28;20197;-73
2022/04/09 06:05:39;;;;;;;9.47;3.80;;;;;;;14.58;58.13;93808.84;5068706;28;20233;-72
2022/04/09 06:08:07;;;;;;;9.80;4.23;;;;;;;14.56;58.02;93813.56;5067884;28;20213;-72
2022/04/09 06:10:34;;;;;;;8.97;3.77;;;;;;;14.66;57.67;93816.16;5067245;28;20205;-73
2022/04/09 06:13:01;;;;;;;12.13;4.73;;;;;;;14.78;56.43;93809.59;5068247;28;20197;-74
2022/04/09 06:15:28;;;;;;;8.97;4.63;;;;;;;14.86;56.49;93804.88;5067921;28;20244;-74
2022/04/09 06:17:54;;;;;;;11.37;4.13;;;;;;;14.93;55.84;93808.78;5058480;28;20206;-74
2022/04/09 06:20:21;;;;;;;10.07;3.73;;;;;;;15.00;56.09;93803.28;5068446;28;20208;-81
2022/04/09 06:22:48;;;;;;;6.60;3.50;;;;;;;15.05;56.06;93803.25;5070442;28;20287;-77
2022/04/09 06:25:16;;;;;;;9.37;4.00;;;;;;;15.09;57.03;93799.06;5070544;28;20217;-79
2022/04/09 06:27:43;;;;;;;9.33;3.83;;;;;;;15.21;56.02;93804.78;5071266;28;20239;-91
2022/04/09 06:30:12;;;;;;;8.60;3.47;;;;;;;15.27;55.57;93795.84;5070730;28;20197;-84
2022/04/09 06:32:39;;;;;;;13.60;4.50;;;;;;;15.28;55.43;93789.56;5070865;28;20672;-88
2022/04/09 06:35:07;;;;;;;12.17;4.27;;;;;;;15.23;55.63;93808.72;5070416;28;20274;-87
2022/04/09 06:37:38;;;;;;;10.67;3.93;;;;;;;15.34;54.52;93796.38;5070455;28;20197;-77
2022/04/09 06:40:07;;;;;;;11.57;4.23;;;;;;;15.44;54.47;93811.25;5069130;28;20205;-84
2022/04/09 06:42:35;;;;;;;8.43;3.93;;;;;;;15.46;53.17;93798.66;5069254;28;20258;-81
2022/04/09 06:45:02;;;;;;;8.53;3.83;;;;;;;15.60;53.00;93815.41;5069121;28;20574;-76
2022/04/09 06:47:29;;;;;;;10.30;4.30;;;;;;;15.61;53.06;93811.75;5068450;28;20528;-83
2022/04/09 06:50:02;;;;;;;13.23;4.37;;;;;;;15.61;52.82;93807.25;5070169;28;20207;-83
2022/04/09 06:52:29;;;;;;;14.10;5.13;;;;;;;15.56;53.01;93806.50;5069747;28;20200;-84
2022/04/09 06:54:57;;;;;;;18.87;5.10;;;;;;;15.62;52.71;93808.84;5065844;28;20201;-79
2022/04/09 06:57:24;;;;;;;6.57;4.53;;;;;;;15.67;53.61;93806.19;5068748;28;20567;-83
2022/04/09 06:59:56;;;;;;;10.53;4.77;;;;;;;15.77;52.93;93806.16;5069058;28;20205;-86
2022/04/09 07:02:23;;;;;;;16.27;4.60;;;;;;;15.86;52.62;93807.16;5069518;28;20181;-85
2022/04/09 07:04:49;;;;;;;9.60;4.83;;;;;;;15.94;52.19;93811.03;5069783;28;20692;-84
2022/04/09 07:07:21;;;;;;;12.63;4.80;;;;;;;15.97;52.63;93810.47;5070286;28;20201;-84
2022/04/09 07:09:48;;;;;;;10.13;4.27;;;;;;;16.06;51.48;93814.09;5066636;28;20225;-85
2022/04/09 07:12:14;;;;;;;9.13;3.80;;;;;;;16.11;51.12;93815.88;5067404;28;20588;-84
2022/04/09 07:14:41;;;;;;;13.33;3.97;;;;;;;16.14;51.11;93802.25;5067976;28;20237;-84
2022/04/09 07:17:09;;;;;;;9.70;4.17;;;;;;;16.18;51.12;93805.91;5069635;28;20209;-82
2022/04/09 07:19:38;;;;;;;9.87;3.83;;;;;;;16.30;51.28;93806.34;5069788;28;21545;-83
2022/04/09 07:22:06;;;;;;;9.60;4.10;;;;;;;16.41;51.23;93802.56;5069508;28;20236;-84
2022/04/09 07:24:33;;;;;;;6.87;3.60;;;;;;;16.49;49.86;93801.97;5069822;28;20280;-83
2022/04/09 07:26:59;;;;;;;11.73;3.77;;;;;;;16.56;49.56;93797.25;5068892;28;20301;-80
2022/04/09 07:29:26;;;;;;;10.70;3.70;;;;;;;16.71;49.60;93789.22;5067178;28;20603;-78
2022/04/09 07:31:53;;;;;;;11.53;3.43;;;;;;;16.80;49.22;93786.75;5065225;28;20204;-78
2022/04/09 07:34:22;;;;;;;7.67;3.83;;;;;;;16.85;49.21;93779.63;5058307;28;20208;-80
2022/04/09 07:36:49;;;;;;;18.47;4.00;;;;;;;16.91;48.60;93781.16;5068129;28;20209;-80
2022/04/09 07:39:16;;;;;;;11.17;4.23;;;;;;;16.88;49.48;93771.19;5069293;28;20202;-85
2022/04/09 07:41:44;;;;;;;9.50;3.67;;;;;;;16.99;48.49;93785.03;5069252;28;20687;-82
2022/04/09 07:44:13;;;;;;;8.37;3.77;;;;;;;17.09;48.15;93774.41;5068683;28;20205;-86
2022/04/09 07:46:40;;;;;;;11.37;3.97;;;;;;;17.11;47.75;93768.88;5068914;28;20699;-84
2022/04/09 07:49:07;;;;;;;9.43;3.70;;;;;;;17.27;46.83;93775.50;5067962;28;20213;-78
2022/04/09 07:51:35;;;;;;;4.73;2.63;;;;;;;17.34;46.09;93773.34;5066718;28;20208;-78
2022/04/09 07:54:02;;;;;;;5.87;2.10;;;;;;;17.52;44.53;93775.19;5066428;28;20279;-78
2022/04/09 07:56:28;;;;;;;8.03;2.83;;;;;;;17.64;44.04;93780.84;5067487;28;20285;-78
2022/04/09 07:58:55;;;;;;;3.50;2.30;;;;;;;17.86;43.55;93778.47;5066614;28;20270;-79
2022/04/09 08:01:22;;;;;;;4.07;2.20;;;;;;;17.91;43.64;93767.09;5067724;28;20201;-78
2022/04/09 08:03:50;;;;;;;5.50;2.23;;;;;;;17.93;44.17;93786.78;5068361;28;20205;-86
2022/04/09 08:06:16;;;;;;;4.70;2.20;;;;;;;18.07;44.20;93777.09;5068404;28;20271;-80
2022/04/09 08:08:45;;;;;;;6.33;2.10;;;;;;;18.20;43.09;93766.94;5068246;28;20224;-84
2022/04/09 08:11:12;;;;;;;10.40;3.27;;;;;;;18.27;43.19;93777.88;5067783;28;20633;-79
2022/04/09 08:13:40;;;;;;;10.43;3.47;;;;;;;18.34;44.19;93780.91;5068035;28;20197;-80
2022/04/09 08:16:07;;;;;;;6.00;3.10;;;;;;;18.34;43.42;93771.19;5066179;28;20916;-82
2022/04/09 08:18:34;;;;;;;4.45;2.35;;;;;;;18.52;43.10;93774.88;5066933;28;20193;-81
2022/04/09 08:21:01;;;;;;;6.95;2.13;;;;;;;18.52;41.95;93759.09;5067214;28;20656;-80
2022/04/09 08:23:28;;;;;;;7.10;2.80;;;;;;;18.67;42.62;93779.91;5068167;28;20198;-81
2022/04/09 08:25:57;;;;;;;8.07;3.00;;;;;;;18.81;42.90;93769.38;5068883;28;20679;-81
2022/04/09 08:28:25;;;;;;;8.93;2.50;;;;;;;18.88;42.47;93773.19;5071873;28;20236;-81
2022/04/09 08:30:52;;;;;;;4.97;2.38;;;;;;;19.04;41.26;93769.22;5070776;28;20201;-81
2022/04/09 08:33:19;;;;;;;4.93;2.00;;;;;;;19.00;40.76;93759.53;5070969;28;20198;-81
2022/04/09 08:35:46;;;;;;;8.98;2.10;;;;;;;19.06;40.95;93764.44;5071519;28;20209;-81
2022/04/09 08:38:13;;;;;;;8.35;2.25;;;;;;;19.14;41.26;93763.75;5071176;28;20189;-81
2022/04/09 08:40:42;;;;;;;4.10;1.85;;;;;;;19.19;41.28;93768.91;5070919;28;20205;-84
2022/04/09 08:43:11;;;;;;;8.00;2.80;;;;;;;19.15;40.84;93751.38;5070759;28;20863;-83
2022/04/09 08:45:40;;;;;;;6.47;2.63;;;;;;;19.21;40.91;93774.69;5070893;28;20221;-82
2022/04/09 08:48:09;;;;;;;6.00;2.10;;;;;;;19.23;40.74;93756.72;5071252;28;20198;-81
2022/04/09 08:50:36;;;;;;;2.50;1.60;;;;;;;19.31;40.48;93752.63;5071137;28;20298;-84
2022/04/09 08:53:07;;;;;;;2.78;2.00;;;;;;;19.34;41.08;93744.13;5071565;28;20197;-81
2022/04/09 08:55:34;;;;;;;5.93;2.00;;;;;;;19.45;40.79;93760.56;5071515;28;20194;-82
2022/04/09 08:58:01;;;;;;;4.97;1.95;;;;;;;19.56;40.63;93759.28;5070848;28;20246;-81
2022/04/09 09:00:29;;;;;;;7.00;1.80;;;;;;;19.61;39.89;93746.78;5070844;28;20939;-82
2022/04/09 09:02:58;;;;;;;5.93;1.95;;;;;;;19.81;40.26;93753.47;5071298;28;20211;-82
2022/04/09 09:05:30;;;;;;;7.43;2.03;;;;;;;19.83;39.97;93749.44;5071088;28;20201;-81
2022/04/09 09:07:56;;;;;;;6.22;1.75;;;;;;;20.00;39.49;93740.88;5069672;28;20276;-81
2022/04/09 09:10:23;;;;;;;7.82;1.88;;;;;;;20.15;38.98;93747.69;5070240;28;20200;-81
2022/04/09 09:12:58;;;;;;;5.40;1.98;;;;;;;20.23;38.91;93744.34;5071347;28;20197;-82
2022/04/09 09:15:25;;;;;;;6.95;1.98;;;;;;;20.37;38.75;93747.72;5069247;28;20255;-81
2022/04/09 09:17:57;;;;;;;4.05;1.70;;;;;;;20.38;37.84;93744.78;5070225;28;20794;-79
2022/04/09 09:20:24;;;;;;;2.92;1.70;;;;;;;20.33;37.90;93750.19;5069654;28;20201;-79
2022/04/09 09:22:52;;;;;;;4.63;1.70;;;;;;;20.29;37.89;93756.34;5069473;28;20216;-78
2022/04/09 09:25:19;;;;;;;4.55;1.70;;;;;;;20.19;38.00;93757.34;5069144;28;20201;-79
2022/04/09 09:27:56;;;;;;;6.57;1.85;;;;;;;20.11;38.18;93760.72;5070634;28;20201;-82
2022/04/09 09:30:23;;;;;;;3.78;1.52;;;;;;;20.11;37.97;93744.88;5070757;28;20229;-80
2022/04/09 09:33:09;;;;;;;3.53;1.90;;;;;;;20.14;38.06;93744.28;5070788;28;20216;-80
2022/04/09 09:35:53;;;;;;;3.08;1.80;;;;;;;20.12;38.10;93753.56;5070857;28;20201;-81
2022/04/09 09:38:22;;;;;;;6.13;1.73;;;;;;;20.08;38.45;93742.84;5066487;28;20706;-81
2022/04/09 09:40:49;;;;;;;5.20;1.58;;;;;;;20.08;37.99;93737.56;5068855;28;20201;-80
2022/04/09 09:43:17;;;;;;;4.53;2.22;;;;;;;20.20;38.54;93729.13;5069998;28;20623;-80
2022/04/09 09:45:44;;;;;;;6.18;3.40;;;;;;;20.42;38.89;93734.41;5069631;28;20324;-80
2022/04/09 09:48:26;;;;;;;5.05;2.78;;;;;;;20.72;38.53;93720.44;5070199;28;20202;-82
2022/04/09 09:50:54;;;;;;;6.20;2.17;;;;;;;21.14;36.87;93716.44;5070118;28;20220;-80
2022/04/09 09:53:29;;;;;;;5.82;1.70;;;;;;;21.27;35.92;93720.06;5070159;28;20206;-80
2022/04/09 09:55:56;;;;;;;7.93;2.10;;;;;;;21.37;35.22;93715.28;5069764;28;20224;-80
2022/04/09 09:58:24;;;;;;;4.40;2.33;;;;;;;21.50;35.73;93724.94;5070574;28;20197;-81
2022/04/09 10:00:51;;;;;;;6.57;2.00;;;;;;;21.46;35.70;93724.00;5070148;28;20194;-81
2022/04/09 10:03:20;;;;;;;4.47;1.85;;;;;;;21.46;35.85;93729.28;5067304;28;20553;-82
2022/04/09 10:05:50;;;;;;;7.10;2.10;;;;;;;21.29;35.86;93716.03;5066976;28;20228;-81
2022/04/09 10:08:17;;;;;;;4.10;2.08;;;;;;;21.48;35.46;93711.25;5067057;28;20198;-80
2022/04/09 10:10:48;;;;;;;7.47;2.20;;;;;;;21.94;34.46;93701.97;5066178;28;20201;-79
2022/04/09 10:13:20;;;;;;;6.00;1.90;;;;;;;22.08;33.26;93715.06;5069070;28;20196;-79
2022/04/09 10:15:50;;;;;;;3.63;1.95;;;;;;;22.14;33.58;93706.63;5068002;28;20312;-78
2022/04/09 10:18:22;;;;;;;7.85;2.05;;;;;;;22.13;33.23;93707.75;5066786;28;20201;-78
2022/04/09 10:20:53;;;;;;;6.22;2.08;;;;;;;22.22;32.51;93705.09;5068145;28;20197;-78
2022/04/09 10:23:22;;;;;;;5.60;2.35;;;;;;;22.42;32.76;93696.50;5068533;28;20607;-78
2022/04/09 10:25:51;;;;;;;7.70;2.08;;;;;;;22.51;32.61;93705.19;5068965;28;20284;-78
2022/04/09 10:28:31;;;;;;;3.30;2.17;;;;;;;22.67;31.70;93724.03;5066526;28;20201;-80
2022/04/09 10:30:58;;;;;;;4.85;2.10;;;;;;;22.70;31.32;93703.00;5066422;28;20193;-79
2022/04/09 10:33:28;;;;;;;10.50;2.35;;;;;;;22.84;31.50;93685.00;5068218;28;20193;-79
2022/04/09 10:36:01;;;;;;;3.63;1.60;;;;;;;22.76;30.32;93688.47;5068150;28;20311;-79
2022/04/09 10:38:28;;;;;;;3.55;1.83;;;;;;;22.90;30.92;93686.41;5066079;28;20205;-79
2022/04/09 10:41:30;;;;;;;4.15;2.00;;;;;;;23.08;30.43;93687.09;5068076;28;20259;-78
2022/04/09 10:44:03;;;;;;;4.50;2.08;;;;;;;23.14;30.25;93696.44;5067175;28;20207;-78
2022/04/09 10:46:35;;;;;;;5.30;2.30;;;;;;;23.06;30.08;93682.09;5066787;28;20213;-80
2022/04/09 10:49:22;;;;;;;6.13;1.90;;;;;;;22.89;30.50;93668.94;5068074;28;20220;-78
2022/04/09 10:52:15;;;;;;;5.68;2.00;;;;;;;22.87;31.30;93670.34;5065703;28;20193;-78
2022/04/09 10:55:04;;;;;;;5.45;1.98;;;;;;;22.86;30.79;93666.13;5051877;28;20206;-79
2022/04/09 10:57:42;;;;;;;5.72;2.10;;;;;;;23.01;30.54;93665.59;5068350;28;20243;-79
2022/04/09 11:00:29;;;;;;;3.70;1.60;;;;;;;23.08;30.06;93661.38;5067532;28;20304;-79
2022/04/09 11:03:05;;;;;;;5.75;1.77;;;;;;;23.13;29.97;93660.41;5066094;28;20201;-79
2022/04/09 11:05:33;;;;;;;3.97;1.90;;;;;;;23.15;29.97;93658.97;5066350;28;20201;-79
2022/04/09 11:08:08;;;;;;;2.78;1.80;;;;;;;23.36;29.64;93663.53;5067152;28;20572;-78
2022/04/09 11:10:36;;;;;;;3.33;1.80;;;;;;;23.35;29.39;93660.13;5067763;28;20193;-78
2022/04/09 11:13:03;;;;;;;3.60;1.50;;;;;;;23.31;29.53;93658.44;5066980;28;20200;-79
2022/04/09 11:15:30;;;;;;;6.78;1.98;;;;;;;23.06;29.85;93642.34;5067495;28;20253;-79
2022/04/09 11:18:00;;;;;;;5.38;1.98;;;;;;;23.09;29.66;93640.91;5067506;28;20198;-80
2022/04/09 11:20:32;;;;;;;5.35;1.98;;;;;;;23.14;29.74;93646.06;5066320;28;20200;-79
2022/04/09 11:23:10;;;;;;;6.20;1.85;;;;;;;23.20;30.10;93633.41;5067617;28;20247;-78
2022/04/09 11:25:36;;;;;;;4.32;1.90;;;;;;;23.33;29.83;93656.22;5067517;28;21250;-79
2022/04/09 11:28:10;;;;;;;4.80;1.90;;;;;;;23.29;28.86;93648.13;5066450;28;20926;-79
2022/04/09 11:30:37;;;;;;;5.63;1.92;;;;;;;23.36;28.82;93642.31;5067815;28;20205;-78
2022/04/09 11:33:04;;;;;;;6.43;1.92;;;;;;;23.58;28.75;93650.00;5067101;28;20205;-80
2022/04/09 11:35:34;;;;;;;6.65;1.80;;;;;;;23.77;27.82;93645.03;5068224;28;20204;-80
2022/04/09 11:38:02;;;;;;;4.90;1.65;;;;;;;23.54;28.03;93647.25;5068615;28;20197;-81
2022/04/09 11:40:30;;;;;;;6.30;2.40;;;;;;;23.42;28.30;93641.06;5068462;28;20205;-81
2022/04/09 11:42:57;;;;;;;3.75;1.88;;;;;;;23.19;27.88;93629.97;5067521;28;20660;-79
2022/04/09 11:45:26;;;;;;;4.65;1.75;;;;;;;23.36;27.54;93655.59;5065313;28;20198;-78
2022/04/09 11:47:54;;;;;;;5.00;2.08;;;;;;;23.51;26.92;93645.22;5066919;28;20228;-78